createdAt,value
2019-01-10T00:00:23.383Z,2.70
2019-01-10T00:02:52.527Z,3.10
2019-01-10T00:05:21.500Z,3.10
2019-01-10T00:07:50.388Z,3.17
2019-01-10T00:10:19.425Z,3.00
2019-01-10T00:12:48.297Z,3.83
2019-01-10T00:15:18.043Z,4.13
2019-01-10T00:17:47.268Z,3.50
2019-01-10T00:20:17.049Z,2.97
2019-01-10T00:22:46.052Z,4.50
2019-01-10T00:25:15.214Z,2.90
2019-01-10T00:27:44.195Z,3.50
2019-01-10T00:30:18.091Z,2.90
2019-01-10T00:32:47.202Z,3.70
2019-01-10T00:35:16.372Z,4.37
2019-01-10T00:37:45.318Z,3.27
2019-01-10T00:40:15.152Z,3.53
2019-01-10T00:42:49.679Z,3.90
2019-01-10T00:45:15.878Z,3.70
2019-01-10T00:47:44.929Z,2.70
2019-01-10T00:50:16.494Z,2.62
2019-01-10T00:52:45.590Z,4.53
2019-01-10T00:55:14.785Z,3.90
2019-01-10T00:57:43.743Z,4.90
2019-01-10T01:00:16.895Z,2.80
2019-01-10T01:02:45.880Z,4.40
2019-01-10T01:05:15.332Z,3.77
2019-01-10T01:07:44.272Z,3.07
2019-01-10T01:10:16.532Z,4.10
2019-01-10T01:12:45.500Z,3.55
2019-01-10T01:15:15.543Z,3.10
2019-01-10T01:17:44.502Z,3.83
2019-01-10T01:20:14.223Z,3.40
2019-01-10T01:22:43.187Z,3.73
2019-01-10T01:25:12.709Z,4.10
2019-01-10T01:27:41.759Z,3.20
2019-01-10T01:30:14.092Z,4.30
2019-01-10T01:32:43.327Z,3.30
2019-01-10T01:35:12.601Z,3.47
2019-01-10T01:37:41.488Z,3.77
2019-01-10T01:40:11.338Z,4.00
2019-01-10T01:42:40.148Z,4.40
2019-01-10T01:45:10.661Z,2.87
2019-01-10T01:47:39.820Z,3.85
2019-01-10T01:50:11.351Z,3.57
2019-01-10T01:52:40.285Z,2.90
2019-01-10T01:55:09.543Z,3.83
2019-01-10T01:57:38.432Z,3.80
2019-01-10T02:00:11.564Z,2.30
2019-01-10T02:02:40.519Z,4.33
2019-01-10T02:05:10.269Z,3.90
2019-01-10T02:07:39.206Z,3.85
2019-01-10T02:10:12.521Z,4.22
2019-01-10T02:12:41.456Z,2.77
2019-01-10T02:15:10.822Z,4.33
2019-01-10T02:17:48.528Z,3.67
2019-01-10T02:20:10.701Z,3.10
2019-01-10T02:22:39.846Z,3.80
2019-01-10T02:25:09.813Z,4.63
2019-01-10T02:27:38.777Z,3.60
2019-01-10T02:30:10.474Z,3.87
2019-01-10T02:32:39.407Z,4.70
2019-01-10T02:35:09.338Z,3.27
2019-01-10T02:37:38.191Z,5.50
2019-01-10T02:40:07.745Z,5.70
2019-01-10T02:42:36.617Z,3.83
2019-01-10T02:45:06.307Z,5.60
2019-01-10T02:47:35.246Z,4.60
2019-01-10T02:50:04.987Z,3.93
2019-01-10T02:52:33.872Z,5.23
2019-01-10T02:55:02.771Z,4.00
2019-01-10T02:57:31.571Z,5.92
2019-01-10T03:00:00.538Z,5.30
2019-01-10T03:02:29.485Z,5.67
2019-01-10T03:04:58.439Z,4.90
2019-01-10T03:07:27.318Z,4.50
2019-01-10T03:09:56.202Z,5.00
2019-01-10T03:12:25.068Z,5.10
2019-01-10T03:14:54.016Z,5.53
2019-01-10T03:17:22.847Z,4.27
2019-01-10T03:19:51.788Z,3.20
2019-01-10T03:22:20.751Z,4.17
2019-01-10T03:24:49.557Z,3.30
2019-01-10T03:27:18.437Z,4.20
2019-01-10T03:29:47.340Z,4.23
2019-01-10T03:32:16.792Z,5.12
2019-01-10T03:34:45.655Z,4.60
2019-01-10T03:37:14.561Z,5.03
2019-01-10T03:39:43.512Z,4.60
2019-01-10T03:42:12.568Z,5.50
2019-01-10T03:44:41.499Z,4.00
2019-01-10T03:47:10.381Z,5.40
2019-01-10T03:49:39.173Z,4.17
2019-01-10T03:52:08.046Z,5.40
2019-01-10T03:54:36.939Z,4.10
2019-01-10T03:57:05.897Z,4.60
2019-01-10T03:59:34.697Z,3.97
2019-01-10T04:02:03.572Z,5.22
2019-01-10T04:04:32.517Z,4.30
2019-01-10T04:07:01.412Z,4.90
2019-01-10T04:09:30.341Z,3.90
2019-01-10T04:11:59.323Z,4.83
2019-01-10T04:14:28.171Z,4.63
2019-01-10T04:16:57.078Z,4.53
2019-01-10T04:19:25.968Z,5.43
2019-01-10T04:21:54.793Z,6.90
2019-01-10T04:24:23.593Z,4.87
2019-01-10T04:26:52.643Z,4.83
2019-01-10T04:29:21.478Z,4.97
2019-01-10T04:31:50.363Z,5.43
2019-01-10T04:34:19.234Z,4.33
2019-01-10T04:36:48.877Z,4.92
2019-01-10T04:39:17.740Z,6.20
2019-01-10T04:41:46.628Z,5.70
2019-01-10T04:44:15.588Z,4.50
2019-01-10T04:46:44.549Z,6.70
2019-01-10T04:49:13.478Z,4.87
2019-01-10T04:51:42.294Z,6.23
2019-01-10T04:54:11.122Z,7.33
2019-01-10T04:56:39.944Z,4.87
2019-01-10T04:59:08.811Z,5.80
2019-01-10T05:01:37.837Z,5.80
2019-01-10T05:04:06.657Z,4.70
2019-01-10T05:06:35.630Z,6.42
2019-01-10T05:09:07.089Z,4.87
2019-01-10T05:11:36.101Z,6.80
2019-01-10T05:14:05.043Z,5.43
2019-01-10T05:16:33.919Z,5.50
2019-01-10T05:19:02.828Z,6.43
2019-01-10T05:21:31.673Z,4.00
2019-01-10T05:24:00.635Z,4.90
2019-01-10T05:26:29.675Z,5.70
2019-01-10T05:28:58.474Z,5.00
2019-01-10T05:31:27.266Z,6.47
2019-01-10T05:33:56.237Z,5.10
2019-01-10T05:36:25.171Z,5.28
2019-01-10T05:38:53.978Z,5.87
2019-01-10T05:41:22.784Z,5.20
2019-01-10T05:43:51.648Z,5.95
2019-01-10T05:46:21.146Z,6.15
2019-01-10T05:48:49.954Z,4.87
2019-01-10T05:51:18.906Z,5.43
2019-01-10T05:53:48.065Z,4.27
2019-01-10T05:56:17.166Z,4.05
2019-01-10T05:58:45.997Z,6.13
2019-01-10T06:01:14.858Z,4.75
2019-01-10T06:03:52.976Z,6.93
2019-01-10T06:06:14.355Z,4.43
2019-01-10T06:08:43.251Z,5.23
2019-01-10T06:11:12.144Z,5.40
2019-01-10T06:13:40.946Z,5.27
2019-01-10T06:16:09.812Z,5.20
2019-01-10T06:18:38.656Z,5.97
2019-01-10T06:21:07.597Z,5.00
2019-01-10T06:23:36.491Z,5.90
2019-01-10T06:26:05.525Z,4.10
2019-01-10T06:28:34.338Z,5.10
2019-01-10T06:31:03.285Z,5.37
2019-01-10T06:33:32.232Z,5.27
2019-01-10T06:36:01.105Z,7.13
2019-01-10T06:38:29.996Z,6.50
2019-01-10T06:40:58.886Z,11.22
2019-01-10T06:43:27.817Z,9.67
2019-01-10T06:45:56.674Z,6.87
2019-01-10T06:48:25.945Z,6.40
2019-01-10T06:50:54.919Z,7.12
2019-01-10T06:53:23.855Z,7.10
2019-01-10T06:55:53.258Z,7.22
2019-01-10T06:58:22.150Z,5.45
2019-01-10T07:00:50.961Z,5.50
2019-01-10T07:03:19.854Z,5.80
2019-01-10T07:05:48.720Z,5.60
2019-01-10T07:08:17.536Z,5.60
2019-01-10T07:10:46.520Z,6.07
2019-01-10T07:13:15.396Z,6.13
2019-01-10T07:15:44.338Z,5.07
2019-01-10T07:18:13.220Z,7.00
2019-01-10T07:20:42.412Z,5.20
2019-01-10T07:23:11.297Z,6.00
2019-01-10T07:25:40.127Z,5.10
2019-01-10T07:28:27.051Z,6.83
2019-01-10T07:30:59.554Z,5.83
2019-01-10T07:33:28.447Z,8.43
2019-01-10T07:35:58.480Z,8.93
2019-01-10T07:38:27.603Z,9.70
2019-01-10T07:40:56.797Z,9.50
2019-01-10T07:43:28.777Z,10.80
2019-01-10T07:45:59.261Z,7.63
2019-01-10T07:48:28.137Z,7.40
2019-01-10T07:50:57.027Z,7.95
2019-01-10T07:53:25.907Z,6.53
2019-01-10T07:55:55.469Z,8.18
2019-01-10T07:58:24.260Z,6.27
2019-01-10T08:00:54.025Z,7.77
2019-01-10T08:03:23.016Z,7.12
2019-01-10T08:05:51.834Z,8.43
2019-01-10T08:08:20.783Z,6.10
2019-01-10T08:10:49.822Z,6.77
2019-01-10T08:13:19.648Z,7.20
2019-01-10T08:15:48.746Z,7.63
2019-01-10T08:18:17.690Z,7.17
2019-01-10T08:20:46.666Z,7.87
2019-01-10T08:23:15.651Z,7.53
2019-01-10T08:25:44.582Z,7.07
2019-01-10T08:28:13.534Z,7.22
2019-01-10T08:30:42.344Z,7.00
2019-01-10T08:33:11.278Z,7.17
2019-01-10T08:35:40.168Z,9.10
2019-01-10T08:38:09.113Z,6.40
2019-01-10T08:40:37.993Z,6.70
2019-01-10T08:43:07.047Z,5.17
2019-01-10T08:45:35.968Z,7.70
2019-01-10T08:48:05.272Z,6.03
2019-01-10T08:50:34.248Z,10.50
2019-01-10T08:53:03.167Z,6.80
2019-01-10T08:55:32.070Z,7.92
2019-01-10T08:58:00.939Z,6.47
2019-01-10T09:00:31.454Z,6.80
2019-01-10T09:03:00.399Z,6.60
2019-01-10T09:05:29.197Z,8.17
2019-01-10T09:07:58.146Z,6.70
2019-01-10T09:10:29.081Z,5.30
2019-01-10T09:12:58.228Z,5.72
2019-01-10T09:15:34.371Z,6.72
2019-01-10T09:17:58.578Z,6.12
2019-01-10T09:20:27.465Z,5.97
2019-01-10T09:22:56.497Z,5.33
2019-01-10T09:25:25.496Z,7.27
2019-01-10T09:27:54.468Z,4.97
2019-01-10T09:30:23.761Z,5.93
2019-01-10T09:32:52.808Z,6.17
2019-01-10T09:35:22.036Z,4.90
2019-01-10T09:37:51.074Z,4.50
2019-01-10T09:40:21.457Z,5.25
2019-01-10T09:42:50.402Z,5.65
2019-01-10T09:45:23.954Z,5.77
2019-01-10T09:47:52.850Z,6.72
2019-01-10T09:50:22.579Z,5.93
2019-01-10T09:52:52.025Z,5.03
2019-01-10T09:55:20.978Z,5.75
2019-01-10T09:57:50.085Z,4.97
2019-01-10T10:00:27.358Z,5.23
2019-01-10T10:02:56.343Z,5.17
2019-01-10T10:05:25.292Z,4.03
2019-01-10T10:07:54.273Z,4.87
2019-01-10T10:10:23.130Z,6.50
2019-01-10T10:12:52.023Z,5.25
2019-01-10T10:15:21.323Z,4.80
2019-01-10T10:17:50.380Z,3.70
2019-01-10T10:20:21.695Z,5.30
2019-01-10T10:22:50.659Z,4.77
2019-01-10T10:25:19.636Z,5.40
2019-01-10T10:27:48.624Z,5.50
2019-01-10T10:30:19.729Z,5.80
2019-01-10T10:32:48.804Z,4.77
2019-01-10T10:35:18.473Z,5.37
2019-01-10T10:37:49.281Z,6.37
2019-01-10T10:40:22.231Z,6.13
2019-01-10T10:42:52.076Z,5.47
2019-01-10T10:45:21.788Z,12.15
2019-01-10T10:47:50.840Z,6.93
2019-01-10T10:50:22.355Z,6.37
2019-01-10T10:52:51.283Z,12.05
2019-01-10T10:55:20.222Z,28.23
2019-01-10T10:57:49.474Z,6.13
2019-01-10T11:00:21.455Z,11.87
2019-01-10T11:02:50.333Z,5.50
2019-01-10T11:05:19.322Z,5.47
2019-01-10T11:07:48.347Z,5.43
2019-01-10T11:10:18.603Z,4.10
2019-01-10T11:12:47.757Z,4.20
2019-01-10T11:15:16.911Z,5.17
2019-01-10T11:17:46.256Z,5.20
2019-01-10T11:20:17.502Z,4.60
2019-01-10T11:22:46.642Z,3.77
2019-01-10T11:25:17.847Z,3.95
2019-01-10T11:27:46.946Z,4.90
2019-01-10T11:30:17.402Z,3.80
2019-01-10T11:32:46.426Z,4.30
2019-01-10T11:35:15.726Z,4.33
2019-01-10T11:37:44.683Z,5.23
2019-01-10T11:40:18.752Z,5.00
2019-01-10T11:42:47.770Z,4.27
2019-01-10T11:45:18.582Z,4.15
2019-01-10T11:47:47.633Z,5.37
2019-01-10T11:50:16.656Z,4.00
2019-01-10T11:52:46.022Z,4.33
2019-01-10T11:55:15.124Z,4.00
2019-01-10T11:57:44.552Z,4.83
2019-01-10T12:00:36.408Z,5.53
2019-01-10T12:03:07.264Z,4.10
2019-01-10T12:05:47.337Z,5.67
2019-01-10T12:08:08.964Z,4.17
2019-01-10T12:10:37.903Z,3.77
2019-01-10T12:13:06.866Z,3.50
2019-01-10T12:15:36.188Z,5.72
2019-01-10T12:18:05.243Z,3.90
2019-01-10T12:20:34.212Z,4.78
2019-01-10T12:23:03.154Z,4.00
2019-01-10T12:25:32.145Z,4.85
2019-01-10T12:28:01.100Z,4.80
2019-01-10T12:30:30.021Z,3.73
2019-01-10T12:32:58.993Z,5.35
2019-01-10T12:35:27.806Z,4.13
2019-01-10T12:37:56.720Z,5.60
2019-01-10T12:40:25.669Z,4.60
2019-01-10T12:42:54.934Z,4.47
2019-01-10T12:45:23.892Z,6.40
2019-01-10T12:47:52.863Z,5.65
2019-01-10T12:50:32.686Z,5.95
2019-01-10T12:53:06.390Z,4.80
2019-01-10T12:55:35.467Z,4.33
2019-01-10T12:58:04.664Z,5.27
2019-01-10T13:00:33.599Z,5.40
2019-01-10T13:03:02.571Z,4.87
2019-01-10T13:05:31.757Z,5.30
2019-01-10T13:08:03.899Z,5.33
2019-01-10T13:10:31.394Z,4.97
2019-01-10T13:13:00.344Z,5.30
2019-01-10T13:15:29.565Z,5.63
2019-01-10T13:17:58.458Z,5.43
2019-01-10T13:20:27.517Z,4.97
2019-01-10T13:22:56.564Z,5.30
2019-01-10T13:25:25.508Z,5.40
2019-01-10T13:27:54.639Z,5.77
2019-01-10T13:30:27.505Z,4.65
2019-01-10T13:32:57.359Z,5.27
2019-01-10T13:35:27.061Z,3.83
2019-01-10T13:37:56.043Z,3.83
2019-01-10T13:40:26.204Z,5.30
2019-01-10T13:42:55.158Z,3.67
2019-01-10T13:45:24.292Z,4.17
2019-01-10T13:47:53.961Z,6.43
2019-01-10T13:50:28.644Z,3.50
2019-01-10T13:52:57.604Z,4.07
2019-01-10T13:55:26.505Z,3.63
2019-01-10T13:57:55.397Z,4.55
2019-01-10T14:00:32.164Z,4.20
2019-01-10T14:02:59.869Z,4.10
2019-01-10T14:05:28.850Z,4.03
2019-01-10T14:07:57.813Z,4.67
2019-01-10T14:10:26.790Z,3.73
2019-01-10T14:12:55.716Z,3.60
2019-01-10T14:15:30.792Z,3.70
2019-01-10T14:17:59.652Z,3.47
2019-01-10T14:20:28.613Z,3.70
2019-01-10T14:22:57.472Z,3.37
2019-01-10T14:25:26.705Z,3.00
2019-01-10T14:27:59.557Z,3.43
2019-01-10T14:30:29.838Z,3.23
2019-01-10T14:32:58.779Z,3.23
2019-01-10T14:35:28.001Z,2.65
2019-01-10T14:37:56.998Z,1.77
2019-01-10T14:40:26.967Z,2.17
2019-01-10T14:42:56.114Z,2.13
2019-01-10T14:45:25.072Z,3.27
2019-01-10T14:47:53.939Z,2.30
2019-01-10T14:50:23.301Z,2.73
2019-01-10T14:52:52.252Z,1.90
2019-01-10T14:55:21.193Z,2.30
2019-01-10T14:57:50.116Z,2.43
2019-01-10T15:00:21.408Z,2.37
2019-01-10T15:02:50.346Z,2.50
2019-01-10T15:05:20.536Z,2.93
2019-01-10T15:07:49.707Z,2.40
2019-01-10T15:10:19.034Z,3.97
2019-01-10T15:12:48.547Z,4.53
2019-01-10T15:15:19.528Z,2.87
2019-01-10T15:17:48.835Z,2.10
2019-01-10T15:20:20.303Z,2.23
2019-01-10T15:22:49.177Z,2.30
2019-01-10T15:25:18.044Z,2.03
2019-01-10T15:27:46.934Z,1.80
2019-01-10T15:30:18.479Z,1.90
2019-01-10T15:32:47.421Z,1.30
2019-01-10T15:35:16.619Z,1.83
2019-01-10T15:37:45.572Z,2.07
2019-01-10T15:40:18.364Z,1.93
2019-01-10T15:42:47.306Z,2.10
2019-01-10T15:45:16.656Z,1.90
2019-01-10T15:47:45.606Z,2.33
2019-01-10T15:50:16.556Z,3.20
2019-01-10T15:52:45.697Z,1.90
2019-01-10T15:55:15.896Z,1.93
2019-01-10T15:57:44.753Z,1.73
2019-01-10T16:00:16.690Z,2.60
2019-01-10T16:02:45.627Z,2.30
2019-01-10T16:05:14.661Z,1.90
2019-01-10T16:07:43.929Z,1.90
2019-01-10T16:10:15.199Z,2.00
2019-01-10T16:12:44.248Z,2.30
2019-01-10T16:15:21.877Z,2.25
2019-01-10T16:17:50.960Z,2.90
2019-01-10T16:20:19.909Z,1.73
2019-01-10T16:22:48.922Z,1.80
2019-01-10T16:25:19.586Z,2.45
2019-01-10T16:27:48.892Z,2.45
2019-01-10T16:30:29.193Z,2.17
2019-01-10T16:32:58.164Z,2.50
2019-01-10T16:35:27.106Z,2.40
2019-01-10T16:37:56.076Z,2.47
2019-01-10T16:40:24.926Z,2.70
2019-01-10T16:42:53.986Z,2.20
2019-01-10T16:45:28.752Z,2.10
2019-01-10T16:47:57.733Z,2.27
2019-01-10T16:50:26.609Z,2.30
2019-01-10T16:52:55.601Z,2.80
2019-01-10T16:55:24.650Z,2.80
2019-01-10T16:57:53.693Z,2.23
2019-01-10T17:00:27.706Z,2.00
2019-01-10T17:02:56.666Z,2.00
2019-01-10T17:05:25.618Z,2.23
2019-01-10T17:07:54.568Z,1.70
2019-01-10T17:10:23.697Z,2.35
2019-01-10T17:12:52.595Z,2.13
2019-01-10T17:15:21.669Z,1.77
2019-01-10T17:17:50.628Z,2.27
2019-01-10T17:20:20.869Z,1.90
2019-01-10T17:22:49.860Z,2.40
2019-01-10T17:25:19.554Z,1.80
2019-01-10T17:27:48.527Z,1.90
2019-01-10T17:30:21.206Z,2.07
2019-01-10T17:32:50.166Z,1.70
2019-01-10T17:35:20.788Z,1.55
2019-01-10T17:37:49.866Z,1.90
2019-01-10T17:40:19.902Z,1.60
2019-01-10T17:42:48.947Z,1.80
2019-01-10T17:45:19.933Z,2.30
2019-01-10T17:47:48.872Z,2.23
2019-01-10T17:50:18.761Z,2.03
2019-01-10T17:52:47.823Z,2.17
2019-01-10T17:55:17.003Z,2.17
2019-01-10T17:57:45.873Z,1.50
2019-01-10T18:00:20.587Z,1.77
2019-01-10T18:02:49.613Z,1.90
2019-01-10T18:05:18.538Z,2.23
2019-01-10T18:07:47.576Z,1.50
2019-01-10T18:10:19.572Z,2.25
2019-01-10T18:12:48.709Z,3.23
2019-01-10T18:15:19.423Z,2.47
2019-01-10T18:17:50.482Z,2.70
2019-01-10T18:20:24.651Z,2.60
2019-01-10T18:22:53.525Z,2.70
2019-01-10T18:25:22.463Z,3.27
2019-01-10T18:27:51.430Z,2.00
2019-01-10T18:30:22.009Z,2.70
2019-01-10T18:32:51.259Z,2.60
2019-01-10T18:35:26.067Z,3.70
2019-01-10T18:37:51.290Z,3.20
2019-01-10T18:40:20.227Z,4.20
2019-01-10T18:42:49.324Z,4.05
2019-01-10T18:45:23.757Z,3.75
2019-01-10T18:47:56.966Z,5.10
2019-01-10T18:50:24.047Z,4.90
2019-01-10T18:52:53.119Z,6.20
2019-01-10T18:55:21.980Z,4.30
2019-01-10T18:57:50.863Z,4.90
2019-01-10T19:00:24.912Z,4.17
2019-01-10T19:02:54.011Z,4.82
2019-01-10T19:05:23.002Z,6.42
2019-01-10T19:07:51.957Z,4.60
2019-01-10T19:10:21.109Z,4.00
2019-01-10T19:12:50.214Z,4.70
2019-01-10T19:15:19.596Z,2.70
2019-01-10T19:17:48.610Z,3.87
2019-01-10T19:20:19.959Z,3.00
2019-01-10T19:22:49.832Z,2.40
2019-01-10T19:25:19.830Z,2.37
2019-01-10T19:27:48.821Z,3.00
2019-01-10T19:30:23.189Z,4.50
2019-01-10T19:32:52.221Z,4.47
2019-01-10T19:35:21.161Z,3.60
2019-01-10T19:37:50.352Z,4.17
2019-01-10T19:40:20.682Z,3.25
2019-01-10T19:42:50.659Z,3.42
2019-01-10T19:45:21.335Z,5.17
2019-01-10T19:47:50.704Z,4.12
2019-01-10T19:50:22.597Z,3.95
2019-01-10T19:52:51.971Z,4.35
2019-01-10T19:55:21.991Z,2.83
2019-01-10T19:57:51.199Z,4.67
2019-01-10T20:00:38.549Z,4.03
2019-01-10T20:03:07.558Z,4.40
2019-01-10T20:05:36.446Z,3.97
2019-01-10T20:08:05.501Z,4.17
2019-01-10T20:10:34.438Z,3.50
2019-01-10T20:13:03.392Z,3.90
2019-01-10T20:15:32.435Z,18.60
2019-01-10T20:18:01.867Z,12.58
2019-01-10T20:20:33.517Z,7.10
2019-01-10T20:23:04.474Z,7.72
2019-01-10T20:25:33.717Z,7.90
2019-01-10T20:28:03.752Z,4.28
2019-01-10T20:30:32.644Z,2.65
2019-01-10T20:33:01.609Z,5.27
2019-01-10T20:35:31.593Z,4.97
2019-01-10T20:38:00.584Z,3.77
2019-01-10T20:40:29.525Z,2.47
2019-01-10T20:42:58.393Z,3.30
2019-01-10T20:45:27.405Z,6.63
2019-01-10T20:47:56.357Z,3.73
2019-01-10T20:50:25.232Z,2.65
2019-01-10T20:52:54.312Z,2.57
2019-01-10T20:55:23.322Z,6.20
2019-01-10T20:57:52.213Z,2.95
2019-01-10T21:00:22.168Z,3.92
2019-01-10T21:02:51.447Z,3.10
2019-01-10T21:05:20.467Z,3.90
2019-01-10T21:07:50.306Z,4.20
2019-01-10T21:10:19.786Z,4.10
2019-01-10T21:12:49.198Z,3.00
2019-01-10T21:15:20.888Z,3.33
2019-01-10T21:17:49.974Z,2.95
2019-01-10T21:20:18.921Z,3.30
2019-01-10T21:22:49.252Z,4.93
2019-01-10T21:25:18.519Z,3.10
2019-01-10T21:27:47.548Z,3.37
2019-01-10T21:30:17.983Z,4.40
2019-01-10T21:32:47.474Z,2.83
2019-01-10T21:35:16.427Z,3.03
2019-01-10T21:37:45.363Z,2.40
2019-01-10T21:40:16.048Z,2.30
2019-01-10T21:42:44.861Z,2.27
2019-01-10T21:45:16.204Z,2.13
2019-01-10T21:47:45.133Z,2.57
2019-01-10T21:50:16.694Z,3.07
2019-01-10T21:52:45.761Z,2.20
2019-01-10T21:55:15.130Z,3.27
2019-01-10T21:57:44.155Z,2.93
2019-01-10T22:02:37.447Z,2.50
2019-01-10T22:05:06.989Z,4.23
2019-01-10T22:07:35.924Z,4.12
2019-01-10T22:10:05.551Z,2.57
2019-01-10T22:12:34.511Z,4.17
2019-01-10T22:15:04.266Z,5.23
2019-01-10T22:17:33.103Z,5.40
2019-01-10T22:20:02.067Z,6.67
2019-01-10T22:22:30.854Z,7.40
2019-01-10T22:24:59.776Z,7.00
2019-01-10T22:27:28.664Z,7.12
2019-01-10T22:29:57.533Z,3.33
2019-01-10T22:32:26.505Z,3.70
2019-01-10T22:34:56.084Z,5.33
2019-01-10T22:37:28.997Z,2.70
2019-01-10T22:39:56.299Z,3.60
2019-01-10T22:42:25.185Z,3.45
2019-01-10T22:44:54.033Z,4.63
2019-01-10T22:47:22.910Z,3.60
2019-01-10T22:49:51.844Z,3.93
2019-01-10T22:52:20.810Z,3.90
2019-01-10T22:54:49.710Z,4.25
2019-01-10T22:57:18.511Z,3.27
2019-01-10T22:59:47.353Z,3.30
2019-01-10T23:02:16.327Z,3.67
2019-01-10T23:04:45.369Z,4.63
2019-01-10T23:07:21.131Z,3.50
2019-01-10T23:09:50.099Z,3.87
2019-01-10T23:12:19.063Z,4.47
2019-01-10T23:14:48.015Z,4.30
2019-01-10T23:17:18.200Z,4.70
2019-01-10T23:19:50.294Z,4.97
2019-01-10T23:22:19.708Z,4.00
2019-01-10T23:24:57.971Z,5.00
2019-01-10T23:27:26.927Z,5.03
2019-01-10T23:29:55.875Z,5.40
2019-01-10T23:32:24.832Z,4.33
2019-01-10T23:34:53.823Z,4.97
2019-01-10T23:37:24.350Z,6.80
2019-01-10T23:39:54.394Z,6.23
2019-01-10T23:42:23.342Z,6.10
2019-01-10T23:44:52.160Z,6.50
2019-01-10T23:47:21.305Z,6.40
2019-01-10T23:49:50.266Z,6.83
2019-01-10T23:52:19.213Z,5.13
2019-01-10T23:54:48.027Z,5.60
2019-01-10T23:57:16.914Z,5.23
2019-01-10T23:59:45.864Z,7.33
